Ana Sayfa
METAR-TAF:

METAR-TAF

Havaalanları :

Pohnpei, Mikronezya

Enlem: 06-59N, Boylam: 158-12E, yükseklik: 2 m

Güncel hava durumu gözlemi

Rapor saat 03:50 UTC de 3 saat ve 34 dakika önce yapıldı.
Rüzgar güney/güneydoğudan 3 kt
Sıcaklık 31°C
Nem 71%
Basınç 1007 hPa
Görüş mesafesi: 24.1 km
1800 ft yükseklikte parçalı bulutlu
30000 ft yükseklikte çok bulutlu

METAR: PTPN 250350Z 16003KT 15SM SCT018 OVC300 31/25 A2975 RMK LAST

Saat: 18:24 (07:24 UTC)

Tahmin

Rapor saat 02:29 UTC de 4 saat ve 55 dakika önce yapıldı.
Ayın 25'si saat 02 UTC'den ayın 25'si saat 24 UTC'ye kadar geçerli Tahmin
Rüzgar güneydoğudan 7 kt
Görüş mesafesi: 10 km
1800 ft yükseklikte parçalı bulutlu
20000 ft yükseklikte parçalı bulutlu
Civarda sağanaklar

TAF: PTPN 250229Z 2502/2524 14007KT P6SM VCSH SCT018 SCT200

4.000'den fazla havaalanı için hava durumu gözlemleri ve tahminleri (METAR ve TAF raporları).

Kullanılabilir istasyonlar harita üzerinde sarı ve kırmızı noktalarla gösterilir.

İstasyonun adını görmek için fareyi noktanın üzerinde gezdirin.

Sonrasında hava gözlem ve tahminlerini görmek için tıklayın.

Haritayı değiştirmek için: yaklaştırmak için siyah artı işaretli yeşil düğmeye ve uzaklaştırmak için de eksi işaretli düğmeye hızla tıklayın; bitişik haritalar için yeşil okları kullanın.


METAR-TAF: